Time;durP1;ratioP1;P1;durP2;ratioP2;P2;SDS_P1;SDS_P2;PMS_P1;PMS_P2;Temp;Humidity;BMP_temperature;BMP_pressure;BME280_temperature;BME280_humidity;BME280_pressure;Samples;Min_cycle;Max_cycle;Signal;HPM_P1;HPM_P2
2023/04/08 00:00:57;;;;;;;1.90;0.80;;;6.00;99.90;;;;;;5034000;28;20768;-77
2023/04/08 00:03:22;;;;;;;0.80;0.60;;;6.00;99.90;;;;;;5033639;28;20580;-72
2023/04/08 00:05:48;;;;;;;0.60;0.60;;;6.00;99.90;;;;;;5016120;28;20180;-73
2023/04/08 00:08:13;;;;;;;0.40;0.40;;;6.10;99.90;;;;;;5033852;28;20171;-77
2023/04/08 00:10:39;;;;;;;0.67;0.67;;;6.20;99.90;;;;;;5033759;28;20594;-76
2023/04/08 00:13:05;;;;;;;0.80;0.80;;;6.30;99.90;;;;;;5033506;28;20189;-74
2023/04/08 00:15:30;;;;;;;0.40;0.40;;;6.30;99.90;;;;;;5016005;28;20194;-75
2023/04/08 00:17:56;;;;;;;0.83;0.80;;;6.30;99.90;;;;;;5033763;28;20264;-73
2023/04/08 00:20:25;;;;;;;0.40;0.40;;;6.20;99.90;;;;;;5033529;28;20245;-76
2023/04/08 00:22:50;;;;;;;2.95;1.27;;;6.20;99.90;;;;;;5033526;28;20233;-74
2023/04/08 00:25:16;;;;;;;1.20;1.10;;;6.20;99.90;;;;;;5033578;28;20626;-74
2023/04/08 00:27:41;;;;;;;2.73;2.53;;;6.20;99.90;;;;;;5033596;28;20179;-74
2023/04/08 00:30:08;;;;;;;1.53;1.17;;;6.20;99.90;;;;;;5033393;28;20260;-76
2023/04/08 00:32:34;;;;;;;0.60;0.60;;;6.20;99.90;;;;;;5033371;28;20167;-74
2023/04/08 00:34:59;;;;;;;1.07;0.97;;;6.10;99.90;;;;;;5033173;28;20206;-73
2023/04/08 00:37:25;;;;;;;1.03;0.97;;;6.00;99.90;;;;;;5033404;28;20165;-75
2023/04/08 00:39:52;;;;;;;1.00;1.00;;;6.00;99.90;;;;;;5033364;28;20166;-77
2023/04/08 00:42:18;;;;;;;0.50;0.50;;;5.80;99.90;;;;;;5033218;28;20195;-76
2023/04/08 00:44:44;;;;;;;1.63;1.53;;;5.80;99.90;;;;;;5033242;28;20178;-72
2023/04/08 00:47:13;;;;;;;3.07;2.70;;;5.70;99.90;;;;;;5033341;28;20904;-74
2023/04/08 00:49:39;;;;;;;0.93;0.93;;;5.70;99.90;;;;;;5015501;28;20198;-76
2023/04/08 00:52:04;;;;;;;1.17;0.67;;;5.70;99.90;;;;;;5033263;28;20199;-75
2023/04/08 00:54:30;;;;;;;0.50;0.50;;;5.80;99.90;;;;;;5033103;28;20555;-75
2023/04/08 00:56:58;;;;;;;0.90;0.90;;;5.80;99.90;;;;;;5033320;28;20178;-73
2023/04/08 00:59:25;;;;;;;0.50;0.50;;;5.80;99.90;;;;;;5033312;28;20173;-74
2023/04/08 01:02:05;;;;;;;1.33;1.23;;;5.80;99.90;;;;;;5033099;28;20278;-75
2023/04/08 01:04:43;;;;;;;0.40;0.40;;;5.80;99.90;;;;;;5037140;28;20254;-77
2023/04/08 01:07:23;;;;;;;1.50;1.40;;;5.80;99.90;;;;;;5037270;28;20301;-78
2023/04/08 01:10:18;;;;;;;1.45;1.35;;;5.90;99.90;;;;;;5037172;28;20240;-75
2023/04/08 01:12:58;;;;;;;0.93;0.93;;;5.80;99.90;;;;;;5036957;28;20575;-74
2023/04/08 01:15:27;;;;;;;1.60;1.15;;;5.80;99.90;;;;;;5036973;28;20199;-74
2023/04/08 01:17:55;;;;;;;1.33;1.23;;;5.80;99.90;;;;;;5037056;28;20174;-74
2023/04/08 01:20:23;;;;;;;0.73;0.70;;;5.80;99.90;;;;;;5037063;28;20167;-72
2023/04/08 01:22:57;;;;;;;1.40;1.30;;;5.80;99.90;;;;;;5036861;28;20186;-72
2023/04/08 01:25:45;;;;;;;0.50;0.50;;;5.60;99.90;;;;;;5036868;28;20170;-75
2023/04/08 01:28:15;;;;;;;0.40;0.40;;;5.60;99.90;;;;;;5036694;28;20191;-76
2023/04/08 01:30:42;;;;;;;0.95;0.95;;;5.50;99.90;;;;;;5037774;28;20676;-77
2023/04/08 01:33:11;;;;;;;0.40;0.40;;;5.40;99.90;;;;;;5036534;28;20254;-76
2023/04/08 01:35:37;;;;;;;0.70;0.70;;;5.40;99.90;;;;;;5036767;28;20584;-75
2023/04/08 01:38:07;;;;;;;0.90;0.90;;;5.30;99.90;;;;;;5036685;28;20171;-74
2023/04/08 01:40:34;;;;;;;0.57;0.57;;;5.20;99.90;;;;;;5036616;28;20426;-75
2023/04/08 01:43:01;;;;;;;1.40;1.35;;;5.20;99.90;;;;;;5036262;28;20178;-74
2023/04/08 01:45:29;;;;;;;0.50;0.50;;;5.10;99.90;;;;;;5036488;28;20168;-74
2023/04/08 01:47:57;;;;;;;0.73;0.73;;;5.10;99.90;;;;;;5036415;28;20189;-75
2023/04/08 01:50:24;;;;;;;1.05;1.05;;;5.10;99.90;;;;;;5036296;28;20247;-73
2023/04/08 01:52:52;;;;;;;0.40;0.40;;;5.00;99.90;;;;;;5036127;28;20185;-73
2023/04/08 01:55:19;;;;;;;1.13;0.60;;;5.00;99.90;;;;;;5018530;28;20202;-72
2023/04/08 01:57:50;;;;;;;1.15;1.02;;;5.00;99.90;;;;;;5036409;28;20172;-72
2023/04/08 02:00:21;;;;;;;1.05;1.05;;;4.90;99.90;;;;;;5036331;28;20176;-72
2023/04/08 02:02:48;;;;;;;1.42;1.42;;;4.80;99.90;;;;;;5036363;28;20515;-74
2023/04/08 02:05:13;;;;;;;0.75;0.60;;;4.80;99.90;;;;;;5036216;28;20171;-75
2023/04/08 02:07:39;;;;;;;0.77;0.70;;;4.80;99.90;;;;;;5036020;28;20582;-72
2023/04/08 02:10:05;;;;;;;0.40;0.40;;;4.70;99.90;;;;;;5035815;28;20194;-75
2023/04/08 02:12:32;;;;;;;0.40;0.40;;;4.70;99.90;;;;;;5035645;28;20475;-73
2023/04/08 02:14:58;;;;;;;0.98;0.98;;;4.60;99.90;;;;;;5035344;28;20279;-72
2023/04/08 02:17:48;;;;;;;0.50;0.50;;;4.60;99.90;;;;;;5036224;28;20163;-75
2023/04/08 02:20:32;;;;;;;0.40;0.40;;;4.60;99.90;;;;;;5035983;28;20890;-76
2023/04/08 02:23:10;;;;;;;0.75;0.75;;;4.60;99.90;;;;;;5035609;28;20167;-72
2023/04/08 02:25:40;;;;;;;1.65;1.33;;;4.60;99.90;;;;;;5017943;28;20651;-75
2023/04/08 02:28:08;;;;;;;0.63;0.63;;;4.60;99.90;;;;;;5035750;28;20175;-75
2023/04/08 02:30:35;;;;;;;0.60;0.60;;;4.70;99.90;;;;;;5035854;28;20187;-74
2023/04/08 02:33:04;;;;;;;0.40;0.40;;;4.80;99.90;;;;;;5035424;28;20232;-75
2023/04/08 02:35:30;;;;;;;1.23;1.13;;;4.80;99.90;;;;;;5035586;28;20804;-75
2023/04/08 02:37:56;;;;;;;0.88;0.63;;;4.80;99.90;;;;;;5035477;28;20171;-73
2023/04/08 02:40:30;;;;;;;0.80;0.80;;;4.90;99.90;;;;;;5035573;28;20186;-75
2023/04/08 02:42:56;;;;;;;0.57;0.57;;;4.90;99.90;;;;;;5035186;28;20182;-71
2023/04/08 02:45:26;;;;;;;0.60;0.60;;;5.00;99.90;;;;;;5017761;28;20182;-74
2023/04/08 02:47:52;;;;;;;0.50;0.50;;;5.00;99.90;;;;;;5035188;28;20166;-76
2023/04/08 02:50:17;;;;;;;0.90;0.70;;;5.00;99.90;;;;;;5035361;28;20179;-76
2023/04/08 02:52:43;;;;;;;0.47;0.47;;;5.20;99.90;;;;;;5035176;28;20233;-74
2023/04/08 02:55:10;;;;;;;2.47;1.98;;;4.90;99.90;;;;;;5035163;28;20197;-77
2023/04/08 02:57:38;;;;;;;0.93;0.93;;;4.90;99.90;;;;;;5035276;28;20179;-71
2023/04/08 03:00:04;;;;;;;1.58;1.58;;;4.90;99.90;;;;;;5035197;28;20189;-72
2023/04/08 03:02:30;;;;;;;1.75;0.70;;;4.80;99.90;;;;;;5034894;28;20175;-73
2023/04/08 03:04:56;;;;;;;0.40;0.40;;;4.70;99.90;;;;;;5034833;28;20689;-76
2023/04/08 03:07:21;;;;;;;0.80;0.80;;;4.80;99.90;;;;;;5034949;28;20406;-74
2023/04/08 03:09:47;;;;;;;1.50;1.40;;;4.90;99.90;;;;;;5034829;28;20658;-76
2023/04/08 03:12:13;;;;;;;1.40;0.80;;;4.90;99.90;;;;;;5034761;28;20272;-74
2023/04/08 03:14:38;;;;;;;0.60;0.60;;;4.70;99.90;;;;;;5034691;28;20200;-76
2023/04/08 03:17:04;;;;;;;1.30;1.10;;;4.80;99.90;;;;;;5034919;28;20167;-74
2023/04/08 03:19:29;;;;;;;0.40;0.40;;;4.70;99.90;;;;;;5034687;28;20167;-73
2023/04/08 03:21:55;;;;;;;0.90;0.50;;;4.80;99.90;;;;;;5034606;28;20281;-76
2023/04/08 03:24:21;;;;;;;0.50;0.50;;;4.70;99.90;;;;;;5033929;28;20171;-77
2023/04/08 03:26:46;;;;;;;4.40;1.90;;;4.70;99.90;;;;;;5035200;28;20235;-72
2023/04/08 03:29:12;;;;;;;0.93;0.93;;;4.60;99.90;;;;;;5035689;28;20206;-71
2023/04/08 03:31:37;;;;;;;0.40;0.40;;;4.60;99.90;;;;;;5034523;28;20282;-75
2023/04/08 03:34:03;;;;;;;0.93;0.90;;;4.70;99.90;;;;;;5034377;28;20171;-74
2023/04/08 03:36:28;;;;;;;0.97;0.97;;;4.80;99.90;;;;;;5034330;28;20194;-76
2023/04/08 03:38:54;;;;;;;3.30;1.70;;;4.80;99.90;;;;;;5034502;28;20164;-76
2023/04/08 03:41:20;;;;;;;1.33;1.13;;;4.70;99.90;;;;;;5034280;28;20186;-72
2023/04/08 03:43:45;;;;;;;0.47;0.47;;;4.60;99.90;;;;;;5033957;28;20198;-74
2023/04/08 03:46:11;;;;;;;0.40;0.40;;;4.70;99.90;;;;;;5034371;28;20179;-74
2023/04/08 03:48:37;;;;;;;1.07;1.07;;;4.70;99.90;;;;;;5034540;28;20175;-73
2023/04/08 03:51:02;;;;;;;0.43;0.43;;;4.80;99.90;;;;;;5033999;28;20276;-73
2023/04/08 03:53:28;;;;;;;0.70;0.70;;;4.80;99.90;;;;;;5033820;28;20174;-73
2023/04/08 03:55:55;;;;;;;0.60;0.60;;;4.80;99.90;;;;;;5034024;28;20204;-75
2023/04/08 03:58:21;;;;;;;0.55;0.55;;;4.80;99.90;;;;;;5034069;28;20417;-73
2023/04/08 04:00:47;;;;;;;0.70;0.70;;;4.90;99.90;;;;;;5034031;28;20187;-74
2023/04/08 04:03:13;;;;;;;0.60;0.60;;;4.90;99.90;;;;;;5033940;28;20630;-71
2023/04/08 04:05:39;;;;;;;0.93;0.93;;;5.00;99.90;;;;;;5033849;28;20559;-74
2023/04/08 04:08:05;;;;;;;1.83;1.83;;;5.00;99.90;;;;;;5033914;28;20274;-74
2023/04/08 04:10:31;;;;;;;1.08;1.08;;;5.00;99.90;;;;;;5033622;28;20248;-72
2023/04/08 04:12:56;;;;;;;0.40;0.40;;;5.00;99.90;;;;;;5033630;28;20646;-74
2023/04/08 04:15:22;;;;;;;0.30;0.30;;;5.00;99.90;;;;;;5033738;28;20537;-75
2023/04/08 04:17:49;;;;;;;0.83;0.80;;;5.10;99.90;;;;;;5034059;28;20177;-74
2023/04/08 04:20:15;;;;;;;1.08;1.00;;;5.10;99.90;;;;;;5033599;28;20167;-76
2023/04/08 04:22:41;;;;;;;0.40;0.40;;;5.20;99.90;;;;;;5033597;28;20602;-73
2023/04/08 04:25:07;;;;;;;0.80;0.80;;;5.20;99.90;;;;;;5033541;28;20198;-75
2023/04/08 04:27:34;;;;;;;0.68;0.68;;;5.30;99.90;;;;;;5033513;28;20222;-75
2023/04/08 04:30:00;;;;;;;0.40;0.40;;;5.30;99.90;;;;;;5033656;28;20175;-76
2023/04/08 04:32:25;;;;;;;4.63;1.90;;;5.40;99.90;;;;;;5033564;28;20291;-78
2023/04/08 04:34:51;;;;;;;0.97;0.93;;;5.40;99.90;;;;;;5033245;28;20282;-76
2023/04/08 04:37:17;;;;;;;1.43;1.43;;;5.30;99.90;;;;;;5015528;28;20171;-73
2023/04/08 04:39:43;;;;;;;1.63;1.53;;;5.40;99.90;;;;;;5033456;28;20220;-75
2023/04/08 04:42:09;;;;;;;0.93;0.93;;;5.40;99.90;;;;;;5015519;28;20190;-76
2023/04/08 04:44:35;;;;;;;0.87;0.87;;;5.30;99.90;;;;;;5033056;28;20172;-72
2023/04/08 04:47:00;;;;;;;0.80;0.80;;;5.40;99.90;;;;;;5015489;28;20894;-75
2023/04/08 04:49:26;;;;;;;0.30;0.30;;;5.30;99.90;;;;;;5033635;28;20232;-72
2023/04/08 04:51:52;;;;;;;1.03;0.87;;;5.30;99.90;;;;;;5033214;28;20239;-72
2023/04/08 04:54:17;;;;;;;0.70;0.70;;;5.30;99.90;;;;;;5033147;28;20646;-72
2023/04/08 04:56:43;;;;;;;1.30;1.20;;;5.30;99.90;;;;;;5033548;28;20175;-75
2023/04/08 04:59:08;;;;;;;1.13;1.13;;;5.30;99.90;;;;;;5033263;28;20203;-75
2023/04/08 05:01:34;;;;;;;1.27;1.20;;;5.30;99.90;;;;;;5033047;28;20610;-72
2023/04/08 05:04:00;;;;;;;0.70;0.70;;;5.40;99.90;;;;;;5032881;28;20686;-74
2023/04/08 05:06:26;;;;;;;0.40;0.40;;;5.40;99.90;;;;;;5033141;28;20185;-75
2023/04/08 05:08:52;;;;;;;0.45;0.45;;;5.30;99.90;;;;;;5033142;28;20190;-75
2023/04/08 05:11:18;;;;;;;0.60;0.60;;;5.40;99.90;;;;;;5032998;28;20286;-72
2023/04/08 05:13:44;;;;;;;0.60;0.60;;;5.40;99.90;;;;;;5032734;28;20214;-75
2023/04/08 05:16:10;;;;;;;0.40;0.40;;;5.40;99.90;;;;;;5033148;28;20202;-74
2023/04/08 05:18:35;;;;;;;0.57;0.57;;;5.50;99.90;;;;;;5033018;28;20571;-75
2023/04/08 05:21:02;;;;;;;0.80;0.80;;;5.40;99.90;;;;;;5033003;28;20183;-74
2023/04/08 05:23:27;;;;;;;0.82;0.82;;;5.50;99.90;;;;;;5033083;28;20270;-74
2023/04/08 05:25:53;;;;;;;2.20;1.90;;;5.50;99.90;;;;;;5034234;28;20214;-73
2023/04/08 05:28:19;;;;;;;2.50;2.40;;;5.60;99.90;;;;;;5033033;28;20189;-76
2023/04/08 05:30:51;;;;;;;0.83;0.77;;;5.60;99.90;;;;;;5032843;28;20202;-78
2023/04/08 05:33:17;;;;;;;0.98;0.60;;;5.60;99.90;;;;;;5032614;28;20417;-76
2023/04/08 05:35:43;;;;;;;0.60;0.60;;;5.70;99.90;;;;;;5015107;28;20583;-77
2023/04/08 05:38:09;;;;;;;0.43;0.43;;;5.70;99.90;;;;;;5032910;28;20255;-76
2023/04/08 05:40:34;;;;;;;0.40;0.40;;;5.80;99.90;;;;;;5032939;28;20811;-73
2023/04/08 05:43:00;;;;;;;0.50;0.50;;;5.90;99.90;;;;;;5032530;28;20163;-77
2023/04/08 05:45:27;;;;;;;0.60;0.60;;;5.90;99.90;;;;;;5032667;28;20176;-75
2023/04/08 05:47:53;;;;;;;0.40;0.40;;;5.90;99.90;;;;;;5033039;28;20224;-74
2023/04/08 05:50:19;;;;;;;0.50;0.50;;;6.00;99.90;;;;;;5036164;28;20177;-75
2023/04/08 05:52:45;;;;;;;0.70;0.70;;;6.10;99.90;;;;;;5036298;28;20173;-76
2023/04/08 05:55:12;;;;;;;0.47;0.47;;;6.10;99.90;;;;;;5036247;28;20196;-75
2023/04/08 05:57:37;;;;;;;2.25;2.05;;;6.10;99.90;;;;;;5036155;28;20399;-76
2023/04/08 06:00:07;;;;;;;0.70;0.70;;;6.20;99.90;;;;;;5036119;28;20176;-77
2023/04/08 06:02:34;;;;;;;2.47;1.10;;;6.30;99.90;;;;;;5036297;28;20170;-74
2023/04/08 06:05:00;;;;;;;2.67;1.33;;;6.30;99.90;;;;;;5036094;28;20178;-76
2023/04/08 06:07:25;;;;;;;0.80;0.80;;;6.40;99.90;;;;;;5036188;28;20172;-75
2023/04/08 06:09:51;;;;;;;0.40;0.40;;;6.40;99.90;;;;;;5035944;28;20266;-72
2023/04/08 06:12:16;;;;;;;0.63;0.63;;;6.60;99.90;;;;;;5035955;28;20669;-76
2023/04/08 06:14:42;;;;;;;1.57;1.43;;;6.70;99.90;;;;;;5035797;28;20195;-74
2023/04/08 06:17:08;;;;;;;0.70;0.70;;;6.70;99.90;;;;;;5035927;28;20208;-73
2023/04/08 06:19:34;;;;;;;0.50;0.50;;;6.80;99.90;;;;;;5018034;28;20191;-72
2023/04/08 06:22:00;;;;;;;0.60;0.60;;;7.00;99.90;;;;;;5035759;28;20197;-72
2023/04/08 06:24:26;;;;;;;0.63;0.63;;;7.10;99.90;;;;;;5035670;28;20178;-71
2023/04/08 06:26:53;;;;;;;0.93;0.93;;;7.20;99.90;;;;;;5018145;28;20224;-73
2023/04/08 06:29:22;;;;;;;0.90;0.90;;;7.30;99.90;;;;;;5035711;28;20228;-76
2023/04/08 06:31:49;;;;;;;0.40;0.40;;;7.40;99.90;;;;;;5035540;28;20192;-75
2023/04/08 06:34:15;;;;;;;1.10;1.10;;;7.60;99.90;;;;;;5035364;28;20170;-72
2023/04/08 06:36:41;;;;;;;0.60;0.60;;;7.70;99.90;;;;;;5035602;28;20205;-76
2023/04/08 06:39:06;;;;;;;1.67;1.57;;;7.70;99.90;;;;;;5035628;28;20182;-75
2023/04/08 06:41:32;;;;;;;1.53;1.53;;;7.80;99.90;;;;;;5035354;28;20519;-74
2023/04/08 06:43:57;;;;;;;0.40;0.40;;;8.00;99.90;;;;;;5035368;28;20166;-75
2023/04/08 06:46:24;;;;;;;1.17;1.17;;;8.10;99.90;;;;;;5017660;28;20673;-77
2023/04/08 06:48:50;;;;;;;1.95;1.75;;;8.10;99.90;;;;;;5035434;28;20656;-76
2023/04/08 06:51:15;;;;;;;0.87;0.87;;;8.10;99.90;;;;;;5035332;28;20206;-75
2023/04/08 06:53:41;;;;;;;0.40;0.40;;;8.20;99.90;;;;;;5035065;28;20174;-74
2023/04/08 06:56:06;;;;;;;0.60;0.60;;;8.20;99.90;;;;;;5035024;28;20293;-75
2023/04/08 06:58:32;;;;;;;0.93;0.93;;;8.30;99.90;;;;;;5035337;28;20174;-74
2023/04/08 07:00:59;;;;;;;0.60;0.60;;;8.50;99.90;;;;;;5035159;28;20199;-74
2023/04/08 07:03:25;;;;;;;0.70;0.70;;;8.60;99.30;;;;;;5034720;28;20258;-76
2023/04/08 07:05:51;;;;;;;1.40;1.30;;;8.60;99.20;;;;;;5035168;28;20182;-76
2023/04/08 07:08:17;;;;;;;0.40;0.40;;;8.70;99.20;;;;;;5035075;28;20170;-74
2023/04/08 07:10:43;;;;;;;0.40;0.40;;;8.80;99.20;;;;;;5034711;28;20217;-76
2023/04/08 07:13:09;;;;;;;1.63;1.52;;;8.90;98.70;;;;;;5016926;28;20178;-76
2023/04/08 07:15:35;;;;;;;0.80;0.55;;;8.90;98.70;;;;;;5034906;28;20290;-73
2023/04/08 07:18:01;;;;;;;1.00;1.00;;;8.70;98.70;;;;;;5034877;28;20206;-77
2023/04/08 07:20:30;;;;;;;1.02;0.82;;;8.80;99.10;;;;;;5034774;28;20187;-74
2023/04/08 07:22:55;;;;;;;1.40;1.30;;;8.90;98.90;;;;;;5036435;28;20175;-74
2023/04/08 07:25:21;;;;;;;0.63;0.63;;;9.00;98.80;;;;;;5034814;28;20204;-71
2023/04/08 07:27:46;;;;;;;1.00;0.57;;;9.20;98.90;;;;;;5034625;28;20558;-75
2023/04/08 07:30:12;;;;;;;0.93;0.93;;;9.30;99.00;;;;;;5034570;28;20179;-75
2023/04/08 07:32:38;;;;;;;3.43;1.70;;;9.50;98.90;;;;;;5034524;28;20175;-73
2023/04/08 07:35:04;;;;;;;2.03;1.93;;;9.80;98.80;;;;;;5034330;28;20201;-78
2023/04/08 07:37:29;;;;;;;2.70;1.60;;;10.10;97.80;;;;;;5016822;28;20535;-73
2023/04/08 07:39:55;;;;;;;0.57;0.57;;;10.50;97.00;;;;;;5034381;28;20760;-75
2023/04/08 07:42:21;;;;;;;0.97;0.97;;;11.00;96.30;;;;;;5034250;28;20429;-76
2023/04/08 07:44:46;;;;;;;1.10;1.00;;;11.60;95.20;;;;;;5034044;28;20198;-73
2023/04/08 07:47:12;;;;;;;0.70;0.50;;;12.10;95.10;;;;;;5034045;28;20174;-72
2023/04/08 07:49:38;;;;;;;1.10;1.10;;;12.50;93.70;;;;;;5034250;28;20213;-74
2023/04/08 07:52:05;;;;;;;0.70;0.70;;;12.80;92.20;;;;;;5034017;28;20796;-75
2023/04/08 07:54:33;;;;;;;1.17;1.17;;;13.00;91.20;;;;;;5033796;28;20651;-75
2023/04/08 07:56:59;;;;;;;1.63;1.43;;;12.80;87.90;;;;;;5034263;28;20402;-74
2023/04/08 07:59:24;;;;;;;0.77;0.77;;;12.40;87.50;;;;;;5033978;28;20492;-73
2023/04/08 08:01:51;;;;;;;0.80;0.80;;;12.40;89.30;;;;;;5033775;28;20460;-73
2023/04/08 08:04:17;;;;;;;1.43;1.33;;;12.40;87.60;;;;;;5033684;28;20456;-72
2023/04/08 08:06:43;;;;;;;0.67;0.67;;;12.80;88.00;;;;;;5033936;28;20171;-77
2023/04/08 08:09:08;;;;;;;0.50;0.50;;;13.40;87.70;;;;;;5033682;28;20203;-77
2023/04/08 08:11:34;;;;;;;0.70;0.70;;;13.80;82.60;;;;;;5033249;28;20556;-76
2023/04/08 08:14:00;;;;;;;0.60;0.60;;;13.80;80.50;;;;;;5033580;28;20203;-72
2023/04/08 08:16:30;;;;;;;0.50;0.50;;;13.90;82.80;;;;;;5016017;28;20214;-73
2023/04/08 08:18:56;;;;;;;0.50;0.50;;;13.90;83.10;;;;;;5033836;28;20755;-74
2023/04/08 08:21:22;;;;;;;0.50;0.50;;;13.80;80.60;;;;;;5015847;28;20433;-75
2023/04/08 08:23:48;;;;;;;0.63;0.63;;;13.70;77.40;;;;;;5033364;28;20405;-76
2023/04/08 08:26:13;;;;;;;0.50;0.50;;;13.50;77.50;;;;;;5033750;28;20178;-73
2023/04/08 08:28:39;;;;;;;0.80;0.80;;;13.40;77.60;;;;;;5033563;28;20175;-73
2023/04/08 08:31:05;;;;;;;0.63;0.63;;;13.50;79.00;;;;;;5033423;28;20194;-74
2023/04/08 08:33:31;;;;;;;0.40;0.40;;;13.40;78.80;;;;;;5033276;28;20181;-75
2023/04/08 08:35:57;;;;;;;0.53;0.53;;;13.40;80.90;;;;;;5033432;28;20441;-74
2023/04/08 08:38:24;;;;;;;0.40;0.40;;;13.60;80.70;;;;;;5033392;28;20405;-76
2023/04/08 08:40:57;;;;;;;1.07;0.97;;;13.80;78.90;;;;;;5033342;28;20193;-75
2023/04/08 08:43:27;;;;;;;0.60;0.60;;;13.80;77.70;;;;;;5033347;28;20406;-76
2023/04/08 08:45:53;;;;;;;1.23;1.23;;;13.90;76.40;;;;;;5033398;28;20416;-74
2023/04/08 08:48:19;;;;;;;1.10;1.10;;;13.80;75.40;;;;;;5033377;28;20421;-75
2023/04/08 08:50:45;;;;;;;0.70;0.70;;;13.60;77.10;;;;;;5033210;28;20425;-74
2023/04/08 08:53:11;;;;;;;0.63;0.63;;;13.50;78.20;;;;;;5033294;28;20210;-74
2023/04/08 08:55:38;;;;;;;0.40;0.40;;;13.30;76.90;;;;;;5033484;28;20203;-72
2023/04/08 08:58:04;;;;;;;1.07;0.83;;;13.20;76.60;;;;;;5033385;28;20524;-72
2023/04/08 09:00:32;;;;;;;0.73;0.73;;;13.00;77.00;;;;;;5033302;28;20436;-72
2023/04/08 09:03:12;;;;;;;0.63;0.63;;;12.80;76.80;;;;;;5032902;28;20428;-71
2023/04/08 09:05:55;;;;;;;0.87;0.87;;;12.60;80.90;;;;;;5033073;28;20416;-71
2023/04/08 09:08:32;;;;;;;0.40;0.40;;;12.60;81.00;;;;;;5033191;28;20409;-74
2023/04/08 09:11:22;;;;;;;1.37;1.03;;;12.60;79.90;;;;;;5032924;28;20448;-72
2023/04/08 09:13:48;;;;;;;1.00;1.00;;;12.60;78.30;;;;;;5015105;28;20424;-72
2023/04/08 09:16:16;;;;;;;0.63;0.63;;;12.50;78.30;;;;;;5032778;28;20461;-72
2023/04/08 09:18:43;;;;;;;0.80;0.80;;;12.50;77.30;;;;;;5033079;28;20253;-71
2023/04/08 09:21:09;;;;;;;0.53;0.53;;;12.50;78.30;;;;;;5032868;28;20483;-75
2023/04/08 09:23:45;;;;;;;0.77;0.77;;;12.50;77.20;;;;;;5034114;28;20464;-73
2023/04/08 09:26:16;;;;;;;1.50;1.23;;;12.40;78.10;;;;;;5037100;28;20407;-71
2023/04/08 09:28:43;;;;;;;1.40;0.90;;;12.40;79.40;;;;;;5037058;28;20752;-72
2023/04/08 09:31:30;;;;;;;1.00;1.00;;;12.40;78.20;;;;;;5036753;28;20440;-72
2023/04/08 09:33:57;;;;;;;0.40;0.40;;;12.10;78.90;;;;;;5036470;28;20389;-72
2023/04/08 09:36:25;;;;;;;0.40;0.40;;;11.90;80.20;;;;;;5036681;28;20456;-76
2023/04/08 09:38:51;;;;;;;0.77;0.77;;;11.80;80.80;;;;;;5036613;28;20401;-74
2023/04/08 09:41:19;;;;;;;0.40;0.40;;;11.70;80.40;;;;;;5036484;28;20425;-74
2023/04/08 09:43:56;;;;;;;1.15;0.50;;;11.50;81.20;;;;;;5036300;28;20572;-69
2023/04/08 09:46:25;;;;;;;0.80;0.57;;;11.50;82.40;;;;;;5036709;28;20172;-72
2023/04/08 09:49:01;;;;;;;1.70;1.20;;;11.50;81.70;;;;;;5036521;28;20489;-73
2023/04/08 09:51:44;;;;;;;0.43;0.43;;;11.40;81.90;;;;;;5036443;28;20217;-75
2023/04/08 09:54:14;;;;;;;0.40;0.40;;;11.40;82.00;;;;;;5036410;28;20424;-70
2023/04/08 09:57:03;;;;;;;0.57;0.57;;;11.20;81.50;;;;;;5036126;28;20453;-73
2023/04/08 09:59:33;;;;;;;0.70;0.70;;;11.30;82.80;;;;;;5036617;28;20382;-71
2023/04/08 10:02:02;;;;;;;0.70;0.70;;;11.20;83.60;;;;;;5018292;28;20440;-72
2023/04/08 10:04:30;;;;;;;0.37;0.37;;;11.00;84.40;;;;;;5036048;28;20405;-70
2023/04/08 10:07:03;;;;;;;1.17;1.17;;;10.80;83.00;;;;;;5036193;28;20492;-76
2023/04/08 10:09:31;;;;;;;0.30;0.30;;;10.70;83.90;;;;;;5035985;28;20483;-73
2023/04/08 10:11:57;;;;;;;0.73;0.73;;;10.80;84.60;;;;;;5035929;28;20457;-77
2023/04/08 10:14:25;;;;;;;1.37;1.27;;;10.80;88.00;;;;;;5035777;28;20491;-75
2023/04/08 10:17:24;;;;;;;0.80;0.80;;;10.60;90.40;;;;;;5035943;28;20544;-74
2023/04/08 10:19:49;;;;;;;0.77;0.77;;;10.70;90.60;;;;;;5036143;28;20755;-75
2023/04/08 10:22:47;;;;;;;0.83;0.83;;;10.80;90.90;;;;;;5035644;28;20425;-74
2023/04/08 10:25:16;;;;;;;0.80;0.80;;;10.80;91.20;;;;;;5035991;28;20643;-75
2023/04/08 10:27:43;;;;;;;1.30;1.20;;;10.70;91.40;;;;;;5035826;28;20406;-73
2023/04/08 10:30:27;;;;;;;1.55;1.55;;;10.50;91.70;;;;;;5035835;28;20202;-74
2023/04/08 10:32:58;;;;;;;1.25;1.15;;;10.10;92.50;;;;;;5035464;28;20182;-72
2023/04/08 10:35:41;;;;;;;1.05;1.05;;;9.70;93.90;;;;;;5035139;28;20206;-74
2023/04/08 10:38:07;;;;;;;1.50;1.33;;;9.50;94.70;;;;;;5035774;28;20170;-74
2023/04/08 10:40:37;;;;;;;0.65;0.65;;;9.30;95.20;;;;;;5035593;28;20187;-71
2023/04/08 10:43:04;;;;;;;0.60;0.60;;;9.30;95.70;;;;;;5035274;28;20194;-72
2023/04/08 10:45:30;;;;;;;2.53;2.42;;;9.40;95.90;;;;;;5035374;28;20216;-76
2023/04/08 10:47:55;;;;;;;2.00;1.43;;;9.40;95.90;;;;;;5035346;28;20587;-72
2023/04/08 10:50:24;;;;;;;1.07;1.07;;;9.30;96.20;;;;;;5035456;28;20174;-76
2023/04/08 10:52:52;;;;;;;0.80;0.80;;;9.40;96.40;;;;;;5017300;28;20193;-74
2023/04/08 10:55:25;;;;;;;1.55;1.55;;;9.70;95.90;;;;;;5035017;28;20289;-71
2023/04/08 10:57:51;;;;;;;0.82;0.70;;;9.70;96.00;;;;;;5035532;28;20170;-75
2023/04/08 11:00:18;;;;;;;0.65;0.65;;;9.80;95.70;;;;;;5035178;28;20179;-75
2023/04/08 11:02:44;;;;;;;0.98;0.88;;;10.00;94.80;;;;;;5035154;28;20263;-74
2023/04/08 11:05:10;;;;;;;1.70;0.93;;;10.20;94.30;;;;;;5035084;28;20194;-73
2023/04/08 11:07:40;;;;;;;2.78;1.60;;;10.30;94.20;;;;;;5035079;28;20194;-74
2023/04/08 11:10:07;;;;;;;0.80;0.80;;;10.40;94.20;;;;;;5034735;28;20195;-74
2023/04/08 11:12:34;;;;;;;1.45;1.35;;;10.30;94.10;;;;;;5016967;28;20230;-73
2023/04/08 11:15:02;;;;;;;1.30;1.25;;;10.10;94.60;;;;;;5034534;28;20201;-72
2023/04/08 11:17:27;;;;;;;2.78;1.13;;;10.00;94.80;;;;;;5034929;28;20517;-73
2023/04/08 11:19:53;;;;;;;0.40;0.40;;;9.80;95.60;;;;;;5038245;28;20297;-73
2023/04/08 11:22:20;;;;;;;1.33;0.77;;;9.90;96.00;;;;;;5034701;28;20440;-75
2023/04/08 11:24:46;;;;;;;5.32;3.35;;;10.00;95.30;;;;;;5034473;28;20492;-73
2023/04/08 11:27:14;;;;;;;2.65;2.55;;;10.10;95.10;;;;;;5034563;28;20167;-75
2023/04/08 11:29:40;;;;;;;2.25;2.15;;;10.10;95.10;;;;;;5034896;28;20167;-71
2023/04/08 11:32:07;;;;;;;0.93;0.93;;;10.00;95.40;;;;;;5034407;28;20194;-73
2023/04/08 11:34:37;;;;;;;2.50;2.33;;;10.00;95.80;;;;;;5034495;28;20197;-73
2023/04/08 11:37:03;;;;;;;0.82;0.82;;;10.00;95.50;;;;;;5034628;28;20174;-71
2023/04/08 11:39:29;;;;;;;2.20;2.07;;;9.90;96.20;;;;;;5034989;28;20526;-72
2023/04/08 11:41:56;;;;;;;0.40;0.40;;;9.90;96.20;;;;;;5034242;28;20194;-74
2023/04/08 11:44:30;;;;;;;2.40;2.30;;;9.70;96.70;;;;;;5034265;28;20559;-74
2023/04/08 11:46:57;;;;;;;1.95;1.55;;;9.60;97.30;;;;;;5033659;28;20171;-72
2023/04/08 11:49:23;;;;;;;2.28;2.17;;;9.70;97.50;;;;;;5034146;28;20175;-75
2023/04/08 11:51:57;;;;;;;3.87;2.40;;;10.00;96.60;;;;;;5034008;28;20202;-76
2023/04/08 11:54:31;;;;;;;0.60;0.60;;;10.10;95.80;;;;;;5033948;28;20534;-75
2023/04/08 11:56:57;;;;;;;1.63;0.93;;;10.40;95.90;;;;;;5034019;28;20278;-76
2023/04/08 11:59:24;;;;;;;1.17;1.17;;;10.90;95.40;;;;;;5034022;28;20194;-77
2023/04/08 12:01:53;;;;;;;3.23;3.03;;;11.10;94.30;;;;;;5033702;28;20468;-74
2023/04/08 12:04:19;;;;;;;1.67;1.57;;;11.20;94.10;;;;;;5033544;28;20934;-77
2023/04/08 12:06:46;;;;;;;1.33;1.23;;;11.50;94.20;;;;;;5033757;28;20410;-72
2023/04/08 12:09:14;;;;;;;1.60;1.50;;;11.90;94.00;;;;;;5033689;28;20171;-71
2023/04/08 12:11:40;;;;;;;0.77;0.77;;;12.40;92.50;;;;;;5033834;28;20422;-72
2023/04/08 12:14:06;;;;;;;1.23;1.13;;;12.70;91.60;;;;;;5033565;28;20459;-73
2023/04/08 12:16:31;;;;;;;10.13;3.47;;;12.90;91.20;;;;;;5033850;28;20510;-76
2023/04/08 12:18:57;;;;;;;0.93;0.93;;;13.00;90.40;;;;;;5033701;28;20221;-72
2023/04/08 12:21:22;;;;;;;2.03;1.93;;;12.90;90.10;;;;;;5033559;28;20615;-75
2023/04/08 12:23:48;;;;;;;1.33;1.23;;;12.70;90.20;;;;;;5015657;28;20178;-74
2023/04/08 12:26:14;;;;;;;0.87;0.87;;;12.60;90.00;;;;;;5033675;28;20186;-71
2023/04/08 12:28:39;;;;;;;1.83;1.53;;;12.20;91.00;;;;;;5033747;28;20246;-72
2023/04/08 12:31:06;;;;;;;1.17;1.10;;;12.00;90.90;;;;;;5033492;28;20204;-71
2023/04/08 12:33:32;;;;;;;1.60;1.50;;;11.80;91.60;;;;;;5015758;28;20179;-74
2023/04/08 12:35:58;;;;;;;0.40;0.40;;;11.80;91.40;;;;;;5033323;28;20456;-76
2023/04/08 12:38:25;;;;;;;0.80;0.80;;;11.60;91.10;;;;;;5033614;28;20162;-72
2023/04/08 12:40:51;;;;;;;1.50;1.40;;;11.60;91.20;;;;;;5033371;28;20650;-71
2023/04/08 12:43:17;;;;;;;1.83;1.70;;;11.50;90.90;;;;;;5033215;28;20422;-72
2023/04/08 12:45:43;;;;;;;0.63;0.63;;;11.50;90.40;;;;;;5033459;28;20838;-76
2023/04/08 12:48:08;;;;;;;0.80;0.60;;;11.40;90.80;;;;;;5033134;28;20167;-76
2023/04/08 12:50:34;;;;;;;1.10;1.00;;;11.40;91.00;;;;;;5033275;28;20831;-73
2023/04/08 12:53:00;;;;;;;1.37;1.30;;;11.20;91.30;;;;;;5033051;28;20173;-72
2023/04/08 12:55:26;;;;;;;2.97;1.03;;;11.20;91.40;;;;;;5033207;28;20444;-74